Time,TemperatureF,DewpointF,PressureIn,WindDirection,WindDirectionDegrees,WindSpeedMPH,WindSpeedGustMPH,Humidity,HourlyPrecipIn,Conditions,Clouds,dailyrainin,SoftwareType,DateUTC
2013-02-26 00:03:00,65.5,63.7,29.53,SW,225,0.0,0.0,94,0.12,RA,,0.00,WeatherDisplay:10.37,2013-02-26 06:03:00,
2013-02-26 00:08:00,65.3,63.5,29.53,SW,225,0.0,0.0,94,0.10,RA,,0.00,WeatherDisplay:10.37,2013-02-26 06:08:00,
2013-02-26 00:13:00,65.3,63.5,29.54,SW,225,0.0,0.0,94,0.08,CLR,,0.00,WeatherDisplay:10.37,2013-02-26 06:13:00,
2013-02-26 00:18:00,65.1,63.3,29.54,SW,225,0.0,0.0,94,0.06,CLR,,0.00,WeatherDisplay:10.37,2013-02-26 06:18:00,
2013-02-26 00:23:00,65.1,63.3,29.54,SW,225,0.0,0.0,94,0.00,CLR,,0.00,WeatherDisplay:10.37,2013-02-26 06:23:00,
2013-02-26 00:28:00,64.9,63.2,29.55,WSW,248,0.0,0.0,94,0.00,CLR,,0.00,WeatherDisplay:10.37,2013-02-26 06:28:00,
2013-02-26 00:33:00,64.8,63.0,29.54,West,270,0.0,0.0,94,0.00,CLR,,0.00,WeatherDisplay:10.37,2013-02-26 06:33:00,
2013-02-26 00:38:00,64.8,63.0,29.54,WSW,248,0.0,0.0,94,0.00,CLR,,0.00,WeatherDisplay:10.37,2013-02-26 06:38:00,
2013-02-26 00:43:00,64.6,62.8,29.54,WSW,248,0.0,0.0,94,0.00,CLR,,0.00,WeatherDisplay:10.37,2013-02-26 06:43:00,
2013-02-26 00:48:00,64.2,62.5,29.54,West,270,0.0,0.0,94,0.00,CLR,,0.00,WeatherDisplay:10.37,2013-02-26 06:48:00,
2013-02-26 00:53:00,64.2,62.2,29.54,West,270,0.0,0.0,93,0.00,CLR,,0.00,WeatherDisplay:10.37,2013-02-26 06:53:00,
2013-02-26 00:58:00,64.0,62.0,29.54,West,270,0.0,0.0,93,0.00,CLR,,0.00,WeatherDisplay:10.37,2013-02-26 06:58:00,
2013-02-26 01:03:00,64.0,62.0,29.54,West,270,0.0,0.0,93,0.00,CLR,,0.00,WeatherDisplay:10.37,2013-02-26 07:03:00,
2013-02-26 01:08:00,63.7,61.6,29.53,NW,315,0.0,0.0,93,0.00,CLR,,0.00,WeatherDisplay:10.37,2013-02-26 07:08:00,
2013-02-26 01:13:00,63.3,61.3,29.54,West,270,0.0,0.0,93,0.00,CLR,,0.00,WeatherDisplay:10.37,2013-02-26 07:13:00,
2013-02-26 01:18:00,63.1,60.8,29.53,West,270,0.0,0.0,92,0.00,CLR,,0.00,WeatherDisplay:10.37,2013-02-26 07:18:00,
2013-02-26 01:23:00,63.1,60.8,29.53,WNW,292,0.0,0.0,92,0.00,CLR,,0.00,WeatherDisplay:10.37,2013-02-26 07:23:00,
2013-02-26 01:28:00,63.0,60.6,29.53,WNW,292,0.0,0.0,92,0.00,CLR,,0.00,WeatherDisplay:10.37,2013-02-26 07:28:00,
2013-02-26 01:33:00,62.6,60.2,29.53,WNW,292,0.0,0.0,92,0.00,CLR,,0.00,WeatherDisplay:10.37,2013-02-26 07:33:00,
2013-02-26 01:38:00,62.4,59.8,29.53,West,270,0.0,0.0,91,0.00,CLR,,0.00,WeatherDisplay:10.37,2013-02-26 07:38:00,
2013-02-26 01:43:00,62.2,59.6,29.53,West,270,0.0,0.0,91,0.00,CLR,,0.00,WeatherDisplay:10.37,2013-02-26 07:43:00,
2013-02-26 01:48:00,62.1,59.4,29.53,West,270,0.0,0.0,91,0.00,CLR,,0.00,WeatherDisplay:10.37,2013-02-26 07:48:00,
2013-02-26 01:53:00,61.9,59.2,29.53,West,270,0.0,0.0,91,0.00,CLR,,0.00,WeatherDisplay:10.37,2013-02-26 07:53:00,
2013-02-26 01:58:00,61.7,59.0,29.53,NW,315,0.0,0.0,91,0.00,CLR,,0.00,WeatherDisplay:10.37,2013-02-26 07:58:00,
2013-02-26 02:03:00,61.5,58.9,29.53,WNW,292,0.0,0.0,91,0.00,CLR,,0.00,WeatherDisplay:10.37,2013-02-26 08:03:00,
2013-02-26 02:08:00,61.5,58.9,29.53,WNW,292,0.0,0.0,91,0.00,CLR,,0.00,WeatherDisplay:10.37,2013-02-26 08:08:00,
2013-02-26 02:13:00,61.5,58.9,29.53,WNW,292,0.0,0.0,91,0.00,CLR,,0.00,WeatherDisplay:10.37,2013-02-26 08:13:00,
2013-02-26 02:18:00,60.6,57.4,29.54,WSW,248,0.0,0.0,89,0.00,CLR,,0.00,WeatherDisplay:10.37,2013-02-26 08:18:00,
2013-02-26 02:23:00,60.6,57.4,29.54,West,270,0.0,0.0,89,0.00,CLR,,0.00,WeatherDisplay:10.37,2013-02-26 08:23:00,
2013-02-26 02:28:00,60.3,57.0,29.54,West,270,0.0,0.0,89,0.00,CLR,,0.00,WeatherDisplay:10.37,2013-02-26 08:28:00,
2013-02-26 02:33:00,60.1,56.5,29.54,WSW,248,0.0,0.0,88,0.00,CLR,,0.00,WeatherDisplay:10.37,2013-02-26 08:33:00,
2013-02-26 02:38:00,59.7,55.8,29.54,WSW,248,0.0,0.0,87,0.00,CLR,,0.00,WeatherDisplay:10.37,2013-02-26 08:38:00,
2013-02-26 02:43:00,59.5,55.7,29.54,WNW,292,0.0,0.0,87,0.00,CLR,,0.00,WeatherDisplay:10.37,2013-02-26 08:43:00,
2013-02-26 02:48:00,59.2,55.0,29.54,West,270,0.0,0.0,86,0.00,CLR,,0.00,WeatherDisplay:10.37,2013-02-26 08:48:00,
2013-02-26 02:53:00,58.8,54.6,29.54,West,270,0.0,0.0,86,0.00,CLR,,0.00,WeatherDisplay:10.37,2013-02-26 08:53:00,
2013-02-26 02:58:00,58.8,54.3,29.55,WNW,292,0.0,0.0,85,0.00,CLR,,0.00,WeatherDisplay:10.37,2013-02-26 08:58:00,
2013-02-26 03:03:00,58.8,54.3,29.54,West,270,0.0,0.0,85,0.00,CLR,,0.00,WeatherDisplay:10.37,2013-02-26 09:03:00,
2013-02-26 03:08:00,58.8,54.3,29.54,West,270,0.0,0.0,85,0.00,CLR,,0.00,WeatherDisplay:10.37,2013-02-26 09:08:00,
2013-02-26 03:13:00,58.3,53.5,29.55,WSW,248,0.0,0.0,84,0.00,CLR,,0.00,WeatherDisplay:10.37,2013-02-26 09:13:00,
2013-02-26 03:18:00,58.1,53.3,29.54,WSW,248,0.0,0.0,84,0.00,CLR,,0.00,WeatherDisplay:10.37,2013-02-26 09:18:00,
2013-02-26 03:23:00,57.9,53.1,29.54,West,270,0.0,0.0,84,0.00,CLR,,0.00,WeatherDisplay:10.37,2013-02-26 09:23:00,
2013-02-26 03:28:00,57.7,52.9,29.55,NW,315,0.0,0.0,84,0.00,CLR,,0.00,WeatherDisplay:10.37,2013-02-26 09:28:00,
2013-02-26 03:33:00,57.7,52.9,29.54,SE,135,0.0,0.0,84,0.00,CLR,,0.00,WeatherDisplay:10.37,2013-02-26 09:33:00,
2013-02-26 03:38:00,57.6,52.8,29.55,WNW,292,0.0,0.0,84,0.00,CLR,,0.00,WeatherDisplay:10.37,2013-02-26 09:38:00,
2013-02-26 03:43:00,57.6,52.8,29.54,WNW,292,0.0,0.0,84,0.00,CLR,,0.00,WeatherDisplay:10.37,2013-02-26 09:43:00,
2013-02-26 03:48:00,57.4,52.6,29.54,West,270,0.0,0.0,84,0.00,CLR,,0.00,WeatherDisplay:10.37,2013-02-26 09:48:00,
2013-02-26 03:53:00,57.2,52.1,29.55,NW,315,0.0,0.0,83,0.00,CLR,,0.00,WeatherDisplay:10.37,2013-02-26 09:53:00,
2013-02-26 03:58:00,57.0,51.9,29.55,ESE,112,0.0,0.0,83,0.00,CLR,,0.00,WeatherDisplay:10.37,2013-02-26 09:58:00,
2013-02-26 04:03:00,57.0,51.9,29.55,NW,315,0.0,0.0,83,0.00,CLR,,0.00,WeatherDisplay:10.37,2013-02-26 10:03:00,
2013-02-26 04:08:00,57.0,51.9,29.55,NW,315,0.0,0.0,83,0.00,CLR,,0.00,WeatherDisplay:10.37,2013-02-26 10:08:00,
2013-02-26 04:13:00,56.8,51.4,29.56,West,270,0.0,0.0,82,0.00,CLR,,0.00,WeatherDisplay:10.37,2013-02-26 10:13:00,
2013-02-26 04:18:00,56.7,51.2,29.56,WNW,292,0.0,0.0,82,0.00,CLR,,0.00,WeatherDisplay:10.37,2013-02-26 10:18:00,
2013-02-26 04:23:00,56.5,51.1,29.56,West,270,0.0,0.0,82,0.00,CLR,,0.00,WeatherDisplay:10.37,2013-02-26 10:23:00,
2013-02-26 04:28:00,56.5,51.1,29.57,WNW,292,0.0,0.0,82,0.00,CLR,,0.00,WeatherDisplay:10.37,2013-02-26 10:28:00,
2013-02-26 04:33:00,56.1,50.7,29.57,WNW,292,0.0,0.0,82,0.00,CLR,,0.00,WeatherDisplay:10.37,2013-02-26 10:33:00,
2013-02-26 04:38:00,56.1,50.7,29.57,West,270,0.0,0.0,82,0.00,CLR,,0.00,WeatherDisplay:10.37,2013-02-26 10:38:00,
2013-02-26 04:43:00,55.8,50.3,29.57,West,270,0.0,0.0,82,0.00,CLR,,0.00,WeatherDisplay:10.37,2013-02-26 10:43:00,
2013-02-26 04:48:00,55.6,50.2,29.57,West,270,0.0,0.0,82,0.00,CLR,,0.00,WeatherDisplay:10.37,2013-02-26 10:48:00,
2013-02-26 04:53:00,55.6,49.8,29.58,NW,315,0.0,0.0,81,0.00,CLR,,0.00,WeatherDisplay:10.37,2013-02-26 10:53:00,
2013-02-26 04:58:00,55.4,49.7,29.58,WNW,292,0.0,0.0,81,0.00,CLR,,0.00,WeatherDisplay:10.37,2013-02-26 10:58:00,
2013-02-26 05:03:00,55.2,48.8,29.58,West,270,0.0,0.0,79,0.00,CLR,,0.00,WeatherDisplay:10.37,2013-02-26 11:03:00,
2013-02-26 05:08:00,55.2,48.8,29.59,West,270,0.0,0.0,79,0.00,CLR,,0.00,WeatherDisplay:10.37,2013-02-26 11:08:00,
2013-02-26 05:13:00,55.0,48.6,29.59,West,270,0.0,0.0,79,0.00,CLR,,0.00,WeatherDisplay:10.37,2013-02-26 11:13:00,
2013-02-26 05:18:00,54.9,48.5,29.59,WNW,292,0.0,0.0,79,0.00,CLR,,0.00,WeatherDisplay:10.37,2013-02-26 11:18:00,
2013-02-26 05:23:00,54.7,48.3,29.59,WNW,292,0.0,0.0,79,0.00,CLR,,0.00,WeatherDisplay:10.37,2013-02-26 11:23:00,
2013-02-26 05:28:00,54.7,48.3,29.59,WNW,292,8.1,16.6,79,0.00,CLR,,0.00,WeatherDisplay:10.37,2013-02-26 11:28:00,
2013-02-26 05:33:00,54.5,48.1,29.59,WNW,292,0.0,0.0,79,0.00,CLR,,0.00,WeatherDisplay:10.37,2013-02-26 11:33:00,
2013-02-26 05:38:00,54.3,47.9,29.60,West,270,0.0,0.0,79,0.00,CLR,,0.00,WeatherDisplay:10.37,2013-02-26 11:38:00,
2013-02-26 05:43:00,54.3,47.9,29.60,West,270,0.0,0.0,79,0.00,CLR,,0.00,WeatherDisplay:10.37,2013-02-26 11:43:00,
2013-02-26 05:48:00,54.1,47.8,29.60,NW,315,0.0,0.0,79,0.00,CLR,,0.00,WeatherDisplay:10.37,2013-02-26 11:48:00,
2013-02-26 05:53:00,54.0,47.6,29.60,WNW,292,0.0,0.0,79,0.00,CLR,,0.00,WeatherDisplay:10.37,2013-02-26 11:53:00,
2013-02-26 05:58:00,53.8,47.4,29.60,West,270,0.0,0.0,79,0.00,CLR,,0.00,WeatherDisplay:10.37,2013-02-26 11:58:00,
2013-02-26 06:03:00,53.8,47.4,29.61,WNW,292,0.0,0.0,79,0.00,CLR,,0.00,WeatherDisplay:10.37,2013-02-26 12:03:00,
2013-02-26 06:08:00,53.4,46.7,29.61,West,270,0.0,0.0,78,0.00,CLR,,0.00,WeatherDisplay:10.37,2013-02-26 12:08:00,
2013-02-26 06:13:00,53.4,46.7,29.61,WNW,292,0.0,0.0,78,0.00,CLR,,0.00,WeatherDisplay:10.37,2013-02-26 12:13:00,
2013-02-26 06:18:00,53.4,46.7,29.61,WNW,292,0.0,0.0,78,0.00,CLR,,0.00,WeatherDisplay:10.37,2013-02-26 12:18:00,
2013-02-26 06:23:00,53.2,46.2,29.62,WNW,292,0.0,0.0,77,0.00,CLR,,0.00,WeatherDisplay:10.37,2013-02-26 12:23:00,
2013-02-26 06:28:00,53.1,45.7,29.62,WNW,292,0.0,0.0,76,0.00,CLR,,0.00,WeatherDisplay:10.37,2013-02-26 12:28:00,
2013-02-26 06:33:00,53.1,45.3,29.63,NW,315,0.0,0.0,75,0.00,CLR,,0.00,WeatherDisplay:10.37,2013-02-26 12:33:00,
2013-02-26 06:38:00,52.9,44.8,29.63,West,270,0.0,0.0,74,0.00,CLR,,0.00,WeatherDisplay:10.37,2013-02-26 12:38:00,
2013-02-26 06:43:00,53.1,45.0,29.63,WNW,292,0.0,0.0,74,0.00,CLR,,0.00,WeatherDisplay:10.37,2013-02-26 12:43:00,
2013-02-26 06:48:00,53.2,45.2,29.63,WNW,292,0.0,0.0,74,0.00,CLR,,0.00,WeatherDisplay:10.37,2013-02-26 12:48:00,
2013-02-26 06:53:00,53.2,45.2,29.64,WNW,292,0.0,0.0,74,0.00,CLR,,0.00,WeatherDisplay:10.37,2013-02-26 12:53:00,
2013-02-26 06:58:00,53.2,45.5,29.64,WNW,292,0.0,0.0,75,0.00,CLR,,0.00,WeatherDisplay:10.37,2013-02-26 12:58:00,
2013-02-26 07:03:00,53.4,46.0,29.65,WNW,292,0.0,0.0,76,0.00,CLR,,0.00,WeatherDisplay:10.37,2013-02-26 13:03:00,
2013-02-26 07:08:00,53.4,45.7,29.65,WSW,248,0.0,0.0,75,0.00,CLR,,0.00,WeatherDisplay:10.37,2013-02-26 13:08:00,
2013-02-26 07:13:00,53.4,45.7,29.65,NW,315,0.0,0.0,75,0.00,CLR,,0.00,WeatherDisplay:10.37,2013-02-26 13:13:00,
2013-02-26 07:18:00,53.2,45.5,29.65,WNW,292,0.0,0.0,75,0.00,CLR,,0.00,WeatherDisplay:10.37,2013-02-26 13:18:00,
2013-02-26 07:23:00,53.4,45.3,29.67,WNW,292,0.0,0.0,74,0.00,CLR,,0.00,WeatherDisplay:10.37,2013-02-26 13:23:00,
2013-02-26 07:28:00,53.4,45.0,29.66,West,270,0.0,0.0,73,0.00,CLR,,0.00,WeatherDisplay:10.37,2013-02-26 13:28:00,
2013-02-26 07:33:00,53.4,45.0,29.67,NW,315,0.0,0.0,73,0.00,CLR,,0.00,WeatherDisplay:10.37,2013-02-26 13:33:00,
2013-02-26 07:38:00,53.8,45.0,29.67,NNW,338,0.0,0.0,72,0.00,CLR,,0.00,WeatherDisplay:10.37,2013-02-26 13:38:00,
2013-02-26 07:43:00,53.8,44.6,29.67,NW,315,0.0,0.0,71,0.00,CLR,,0.00,WeatherDisplay:10.37,2013-02-26 13:43:00,
2013-02-26 07:48:00,54.0,44.4,29.68,NNW,338,0.0,0.9,70,0.00,CLR,,0.00,WeatherDisplay:10.37,2013-02-26 13:48:00,
2013-02-26 07:53:00,54.0,44.4,29.68,NNW,338,0.0,0.0,70,0.00,CLR,,0.00,WeatherDisplay:10.37,2013-02-26 13:53:00,
2013-02-26 07:58:00,54.1,44.2,29.68,WNW,292,0.0,0.0,69,0.00,CLR,,0.00,WeatherDisplay:10.37,2013-02-26 13:58:00,
2013-02-26 08:03:00,54.3,44.0,29.68,West,270,0.0,0.0,68,0.00,CLR,,0.00,WeatherDisplay:10.37,2013-02-26 14:03:00,
2013-02-26 08:08:00,54.9,44.5,29.68,West,270,0.0,0.0,68,0.00,CLR,,0.00,WeatherDisplay:10.37,2013-02-26 14:08:00,
2013-02-26 08:13:00,55.2,44.8,29.69,WNW,292,0.0,0.0,68,0.00,CLR,,0.00,WeatherDisplay:10.37,2013-02-26 14:13:00,
2013-02-26 08:18:00,56.3,45.1,29.69,West,270,8.1,10.0,66,0.00,CLR,,0.00,WeatherDisplay:10.37,2013-02-26 14:18:00,
2013-02-26 08:23:00,56.5,45.3,29.69,NNW,338,18.4,35.2,66,0.00,,,0.00,WeatherDisplay:10.37,2013-02-26 14:23:00,
2013-02-26 08:28:00,57.4,45.7,29.69,WNW,292,0.0,0.0,65,0.00,CLR,,0.00,WeatherDisplay:10.37,2013-02-26 14:28:00,
2013-02-26 08:33:00,57.7,46.0,29.69,WNW,292,0.0,0.0,65,0.00,CLR,,0.00,WeatherDisplay:10.37,2013-02-26 14:33:00,
2013-02-26 08:38:00,58.1,46.0,29.70,WNW,292,10.4,21.0,64,0.00,CLR,,0.00,WeatherDisplay:10.37,2013-02-26 14:38:00,
2013-02-26 08:43:00,58.3,46.2,29.70,West,270,0.0,0.0,64,0.00,CLR,,0.00,WeatherDisplay:10.37,2013-02-26 14:43:00,
2013-02-26 08:48:00,58.6,45.7,29.70,WNW,292,2.3,4.4,62,0.00,CLR,,0.00,WeatherDisplay:10.37,2013-02-26 14:48:00,
2013-02-26 08:53:00,58.6,45.2,29.71,WNW,292,3.5,7.0,61,0.00,CLR,,0.00,WeatherDisplay:10.37,2013-02-26 14:53:00,
2013-02-26 08:58:00,58.6,45.2,29.70,WNW,292,0.0,0.0,61,0.00,CLR,,0.00,WeatherDisplay:10.37,2013-02-26 14:58:00,
2013-02-26 09:03:00,58.8,45.4,29.71,West,270,0.0,0.0,61,0.00,CLR,,0.00,WeatherDisplay:10.37,2013-02-26 15:03:00,
2013-02-26 09:08:00,58.6,45.2,29.71,WNW,292,0.0,0.0,61,0.00,CLR,,0.00,WeatherDisplay:10.37,2013-02-26 15:08:00,
2013-02-26 09:13:00,58.6,44.8,29.71,West,270,0.9,0.9,60,0.00,CLR,,0.00,WeatherDisplay:10.37,2013-02-26 15:13:00,
2013-02-26 09:18:00,58.6,45.7,29.71,NW,315,8.1,9.2,62,0.00,CLR,,0.00,WeatherDisplay:10.37,2013-02-26 15:18:00,
2013-02-26 09:23:00,58.6,45.2,29.71,West,270,0.0,0.0,61,0.00,CLR,,0.00,WeatherDisplay:10.37,2013-02-26 15:23:00,
2013-02-26 09:28:00,58.8,45.4,29.71,West,270,0.0,0.0,61,0.00,CLR,,0.00,WeatherDisplay:10.37,2013-02-26 15:28:00,
2013-02-26 09:33:00,58.8,45.4,29.71,West,270,0.0,0.0,61,0.00,CLR,,0.00,WeatherDisplay:10.37,2013-02-26 15:33:00,
2013-02-26 09:38:00,58.8,45.4,29.71,SW,225,0.0,0.0,61,0.00,CLR,,0.00,WeatherDisplay:10.37,2013-02-26 15:38:00,
2013-02-26 09:43:00,58.8,45.4,29.71,WSW,248,0.0,0.0,61,0.00,CLR,,0.00,WeatherDisplay:10.37,2013-02-26 15:43:00,
2013-02-26 09:48:00,58.8,45.0,29.72,WSW,248,12.7,12.7,60,0.00,CLR,,0.00,WeatherDisplay:10.37,2013-02-26 15:48:00,
2013-02-26 09:53:00,58.8,45.0,29.72,West,270,0.0,0.0,60,0.00,CLR,,0.00,WeatherDisplay:10.37,2013-02-26 15:53:00,
2013-02-26 09:58:00,58.8,45.0,29.71,WSW,248,0.0,0.0,60,0.00,CLR,,0.00,WeatherDisplay:10.37,2013-02-26 15:58:00,
2013-02-26 10:03:00,58.8,44.5,29.72,North,0,4.6,0.0,59,0.00,CLR,,0.00,WeatherDisplay:10.37,2013-02-26 16:03:00,
2013-02-26 10:08:00,58.8,45.0,29.72,WNW,292,0.0,0.0,60,0.00,CLR,,0.00,WeatherDisplay:10.37,2013-02-26 16:08:00,
2013-02-26 10:13:00,58.8,45.0,29.72,SW,225,0.0,0.0,60,0.00,CLR,,0.00,WeatherDisplay:10.37,2013-02-26 16:13:00,
2013-02-26 10:18:00,58.8,45.0,29.72,NNW,338,0.0,0.0,60,0.00,CLR,,0.00,WeatherDisplay:10.37,2013-02-26 16:18:00,
2013-02-26 10:23:00,58.8,45.0,29.73,NW,315,0.0,0.0,60,0.00,CLR,,0.00,WeatherDisplay:10.37,2013-02-26 16:23:00,
2013-02-26 10:28:00,58.8,45.0,29.73,NW,315,0.0,0.0,60,0.00,CLR,,0.00,WeatherDisplay:10.37,2013-02-26 16:28:00,
2013-02-26 10:33:00,58.8,45.0,29.73,WNW,292,0.0,0.0,60,0.00,CLR,,0.00,WeatherDisplay:10.37,2013-02-26 16:33:00,
2013-02-26 10:38:00,58.8,45.0,29.73,NW,315,0.0,0.0,60,0.00,CLR,,0.00,WeatherDisplay:10.37,2013-02-26 16:38:00,
2013-02-26 10:43:00,58.6,44.8,29.74,West,270,11.5,13.3,60,0.00,CLR,,0.00,WeatherDisplay:10.37,2013-02-26 16:43:00,
2013-02-26 10:48:00,58.3,44.0,29.74,NW,315,0.0,0.0,59,0.00,CLR,,0.00,WeatherDisplay:10.37,2013-02-26 16:48:00,
2013-02-26 10:53:00,58.3,44.0,29.74,NNW,338,0.0,0.0,59,0.00,CLR,,0.00,WeatherDisplay:10.37,2013-02-26 16:53:00,
2013-02-26 10:58:00,58.3,44.4,29.74,WSW,248,0.0,2.4,60,0.00,CLR,,0.00,WeatherDisplay:10.37,2013-02-26 16:58:00,
2013-02-26 11:03:00,58.1,43.8,29.74,SW,225,0.0,0.0,59,0.00,CLR,,0.00,WeatherDisplay:10.37,2013-02-26 17:03:00,
2013-02-26 11:08:00,58.1,43.8,29.75,East,90,9.2,17.5,59,0.00,CLR,,0.00,WeatherDisplay:10.37,2013-02-26 17:08:00,
2013-02-26 11:13:00,57.9,44.1,29.75,WSW,248,0.0,0.0,60,0.00,CLR,,0.00,WeatherDisplay:10.37,2013-02-26 17:13:00,
2013-02-26 11:18:00,58.1,43.8,29.74,West,270,2.7,5.3,59,0.00,CLR,,0.00,WeatherDisplay:10.37,2013-02-26 17:18:00,
2013-02-26 11:23:00,58.3,44.9,29.75,NNW,338,0.0,0.0,61,0.00,CLR,,0.00,WeatherDisplay:10.37,2013-02-26 17:23:00,
2013-02-26 11:28:00,58.3,44.4,29.75,WNW,292,0.0,0.0,60,0.00,CLR,,0.00,WeatherDisplay:10.37,2013-02-26 17:28:00,
2013-02-26 11:33:00,58.6,44.3,29.75,NW,315,0.0,0.0,59,0.00,CLR,,0.00,WeatherDisplay:10.37,2013-02-26 17:33:00,
2013-02-26 11:38:00,58.8,45.0,29.75,WNW,292,0.0,0.0,60,0.00,CLR,,0.00,WeatherDisplay:10.37,2013-02-26 17:38:00,
2013-02-26 11:43:00,58.8,45.0,29.75,West,270,0.0,0.0,60,0.00,CLR,,0.00,WeatherDisplay:10.37,2013-02-26 17:43:00,
2013-02-26 11:48:00,58.8,45.4,29.74,WSW,248,0.0,0.0,61,0.00,CLR,,0.00,WeatherDisplay:10.37,2013-02-26 17:48:00,
2013-02-26 11:53:00,59.0,45.6,29.74,West,270,0.0,0.0,61,0.00,CLR,,0.00,WeatherDisplay:10.37,2013-02-26 17:53:00,
2013-02-26 11:59:00,59.2,45.7,29.74,WSW,248,6.9,12.3,61,0.00,CLR,,0.00,WeatherDisplay:10.37,2013-02-26 17:59:00,
2013-02-26 12:04:00,59.5,46.5,29.74,WNW,292,0.0,0.0,62,0.00,CLR,,0.00,WeatherDisplay:10.37,2013-02-26 18:04:00,
2013-02-26 12:09:00,59.5,46.1,29.73,WNW,292,0.0,0.0,61,0.00,CLR,,0.00,WeatherDisplay:10.37,2013-02-26 18:09:00,
2013-02-26 12:14:00,59.7,46.2,29.73,West,270,3.5,6.1,61,0.00,CLR,,0.00,WeatherDisplay:10.37,2013-02-26 18:14:00,
2013-02-26 12:19:00,59.7,45.8,29.73,SW,225,0.0,0.0,60,0.00,CLR,,0.00,WeatherDisplay:10.37,2013-02-26 18:19:00,
2013-02-26 12:24:00,59.5,45.6,29.73,WNW,292,3.5,4.0,60,0.00,CLR,,0.00,WeatherDisplay:10.37,2013-02-26 18:24:00,
2013-02-26 12:29:00,59.5,45.6,29.73,NW,315,0.0,0.0,60,0.00,CLR,,0.00,WeatherDisplay:10.37,2013-02-26 18:29:00,
2013-02-26 12:34:00,59.5,46.1,29.73,SW,225,0.0,0.0,61,0.00,CLR,,0.00,WeatherDisplay:10.37,2013-02-26 18:34:00,
2013-02-26 12:39:00,59.5,46.1,29.73,SW,225,0.0,0.0,61,0.00,CLR,,0.00,WeatherDisplay:10.37,2013-02-26 18:39:00,
2013-02-26 12:44:00,59.5,46.1,29.73,WSW,248,0.0,0.0,61,0.00,CLR,,0.00,WeatherDisplay:10.37,2013-02-26 18:44:00,
2013-02-26 12:49:00,59.5,46.5,29.73,NNW,338,0.0,10.0,62,0.00,CLR,,0.00,WeatherDisplay:10.37,2013-02-26 18:49:00,
2013-02-26 12:54:00,59.4,46.8,29.72,West,270,5.8,5.8,63,0.00,CLR,,0.00,WeatherDisplay:10.37,2013-02-26 18:54:00,
2013-02-26 12:59:00,59.5,47.3,29.72,WSW,248,0.0,0.0,64,0.00,CLR,,0.00,WeatherDisplay:10.37,2013-02-26 18:59:00,
2013-02-26 13:04:00,59.5,47.3,29.71,West,270,0.0,0.0,64,0.00,CLR,,0.00,WeatherDisplay:10.37,2013-02-26 19:04:00,
2013-02-26 13:09:00,59.7,47.5,29.71,SW,225,3.5,0.0,64,0.00,CLR,,0.00,WeatherDisplay:10.37,2013-02-26 19:09:00,
2013-02-26 13:14:00,59.5,47.3,29.71,SW,225,0.0,0.0,64,0.00,CLR,,0.00,WeatherDisplay:10.37,2013-02-26 19:14:00,
2013-02-26 13:19:00,59.5,47.3,29.71,SW,225,5.8,5.8,64,0.00,CLR,,0.00,WeatherDisplay:10.37,2013-02-26 19:19:00,
2013-02-26 13:24:00,59.5,47.8,29.71,SW,225,5.8,10.3,65,0.00,CLR,,0.00,WeatherDisplay:10.37,2013-02-26 19:24:00,
2013-02-26 13:29:00,59.4,47.6,29.71,SW,225,0.0,0.0,65,0.00,CLR,,0.00,WeatherDisplay:10.37,2013-02-26 19:29:00,
2013-02-26 13:34:00,59.5,47.8,29.71,WSW,248,0.0,0.0,65,0.00,CLR,,0.00,WeatherDisplay:10.37,2013-02-26 19:34:00,
2013-02-26 13:39:00,59.5,47.8,29.71,WNW,292,0.0,0.0,65,0.00,CLR,,0.00,WeatherDisplay:10.37,2013-02-26 19:39:00,
2013-02-26 13:44:00,59.5,47.8,29.71,WSW,248,0.0,0.0,65,0.00,CLR,,0.00,WeatherDisplay:10.37,2013-02-26 19:44:00,
2013-02-26 13:49:00,59.5,47.8,29.71,WSW,248,0.0,0.0,65,0.00,CLR,,0.00,WeatherDisplay:10.37,2013-02-26 19:49:00,
2013-02-26 13:54:00,59.5,47.8,29.71,West,270,3.5,0.0,65,0.00,CLR,,0.00,WeatherDisplay:10.37,2013-02-26 19:54:00,
2013-02-26 13:59:00,59.5,47.8,29.71,WSW,248,0.0,0.0,65,0.00,CLR,,0.00,WeatherDisplay:10.37,2013-02-26 19:59:00,
2013-02-26 14:04:00,59.5,47.8,29.71,NW,315,0.0,0.0,65,0.00,CLR,,0.00,WeatherDisplay:10.37,2013-02-26 20:04:00,
2013-02-26 14:09:00,59.5,47.8,29.71,WSW,249,0.0,0.0,65,0.00,CLR,,0.00,WeatherDisplay:10.37,2013-02-26 20:09:00,
2013-02-26 14:14:00,59.5,47.8,29.71,NE,45,0.0,0.0,65,0.00,CLR,,0.00,WeatherDisplay:10.37,2013-02-26 20:14:00,
2013-02-26 14:19:00,59.4,47.6,29.71,NNW,338,0.0,0.0,65,0.00,CLR,,0.00,WeatherDisplay:10.37,2013-02-26 20:19:00,
2013-02-26 14:24:00,58.8,47.1,29.71,North,0,0.0,0.0,65,0.00,CLR,,0.00,WeatherDisplay:10.37,2013-02-26 20:24:00,
2013-02-26 14:29:00,58.8,47.5,29.71,NNW,338,0.0,0.0,66,0.00,CLR,,0.00,WeatherDisplay:10.37,2013-02-26 20:29:00,
2013-02-26 14:34:00,58.8,47.1,29.71,WNW,292,4.6,4.6,65,0.00,CLR,,0.00,WeatherDisplay:10.37,2013-02-26 20:34:00,
2013-02-26 14:39:00,58.6,47.3,29.71,WNW,292,0.0,0.0,66,0.00,CLR,,0.00,WeatherDisplay:10.37,2013-02-26 20:39:00,
2013-02-26 14:44:00,58.8,47.5,29.71,WSW,248,0.0,0.0,66,0.00,CLR,,0.00,WeatherDisplay:10.37,2013-02-26 20:44:00,
2013-02-26 14:49:00,58.8,47.5,29.71,NW,315,0.0,0.0,66,0.00,CLR,,0.00,WeatherDisplay:10.37,2013-02-26 20:49:00,
2013-02-26 14:54:00,58.8,47.5,29.72,WSW,248,0.0,0.0,66,0.00,CLR,,0.00,WeatherDisplay:10.37,2013-02-26 20:54:00,
2013-02-26 14:59:00,58.8,47.5,29.72,WSW,248,0.0,0.0,66,0.00,CLR,,0.00,WeatherDisplay:10.37,2013-02-26 20:59:00,
2013-02-26 15:04:00,58.6,47.3,29.72,SW,225,13.8,13.8,66,0.00,CLR,,0.00,WeatherDisplay:10.37,2013-02-26 21:04:00,
2013-02-26 15:09:00,58.5,47.1,29.72,SSW,202,0.0,0.0,66,0.00,CLR,,0.00,WeatherDisplay:10.37,2013-02-26 21:09:00,
2013-02-26 15:14:00,58.3,47.0,29.72,SW,225,0.0,0.0,66,0.00,CLR,,0.00,WeatherDisplay:10.37,2013-02-26 21:14:00,
2013-02-26 15:19:00,58.1,46.8,29.72,WSW,248,0.0,3.3,66,0.00,CLR,,0.00,WeatherDisplay:10.37,2013-02-26 21:19:00,
2013-02-26 15:24:00,57.9,46.6,29.72,SW,225,8.1,8.1,66,0.00,CLR,,0.00,WeatherDisplay:10.37,2013-02-26 21:24:00,
2013-02-26 15:29:00,57.7,46.5,29.72,WSW,248,0.0,0.2,66,0.00,CLR,,0.00,WeatherDisplay:10.37,2013-02-26 21:29:00,
2013-02-26 15:34:00,57.6,46.3,29.72,SW,225,5.8,5.8,66,0.00,CLR,,0.00,WeatherDisplay:10.37,2013-02-26 21:34:00,
2013-02-26 15:39:00,57.4,46.5,29.72,SSW,202,4.6,0.0,67,0.00,CLR,,0.00,WeatherDisplay:10.37,2013-02-26 21:39:00,
2013-02-26 15:44:00,57.4,46.5,29.72,WNW,292,0.0,0.0,67,0.00,CLR,,0.00,WeatherDisplay:10.37,2013-02-26 21:44:00,
2013-02-26 15:49:00,57.0,46.2,29.72,WSW,248,3.5,3.9,67,0.00,CLR,,0.00,WeatherDisplay:10.37,2013-02-26 21:49:00,
2013-02-26 15:54:00,57.0,46.2,29.72,West,270,0.0,0.0,67,0.00,CLR,,0.00,WeatherDisplay:10.37,2013-02-26 21:54:00,
2013-02-26 15:59:00,57.0,46.2,29.72,West,270,0.0,0.0,67,0.00,CLR,,0.00,WeatherDisplay:10.37,2013-02-26 21:59:00,
2013-02-26 16:04:00,57.0,46.2,29.72,West,270,4.9,9.3,67,0.00,CLR,,0.00,WeatherDisplay:10.37,2013-02-26 22:04:00,
2013-02-26 16:09:00,57.0,46.2,29.73,West,270,4.6,4.6,67,0.00,CLR,,0.00,WeatherDisplay:10.37,2013-02-26 22:09:00,
2013-02-26 16:14:00,56.7,45.8,29.73,WSW,248,10.4,20.1,67,0.00,CLR,,0.00,WeatherDisplay:10.37,2013-02-26 22:14:00,
2013-02-26 16:19:00,56.5,45.7,29.74,WNW,292,0.0,0.0,67,0.00,CLR,,0.00,WeatherDisplay:10.37,2013-02-26 22:19:00,
2013-02-26 16:24:00,56.5,45.7,29.74,NW,315,0.0,0.0,67,0.00,CLR,,0.00,WeatherDisplay:10.37,2013-02-26 22:24:00,
2013-02-26 16:29:00,56.1,45.3,29.74,WSW,248,0.0,0.0,67,0.00,CLR,,0.00,WeatherDisplay:10.37,2013-02-26 22:29:00,
2013-02-26 16:34:00,55.9,45.5,29.74,WNW,292,0.0,0.0,68,0.00,CLR,,0.00,WeatherDisplay:10.37,2013-02-26 22:34:00,
2013-02-26 16:39:00,55.9,45.5,29.74,WNW,292,0.0,0.0,68,0.00,CLR,,0.00,WeatherDisplay:10.37,2013-02-26 22:39:00,
2013-02-26 16:44:00,55.8,45.7,29.74,West,270,0.0,0.0,69,0.00,CLR,,0.00,WeatherDisplay:10.37,2013-02-26 22:44:00,
2013-02-26 16:49:00,55.6,45.6,29.74,West,270,0.0,0.0,69,0.00,CLR,,0.00,WeatherDisplay:10.37,2013-02-26 22:49:00,
2013-02-26 16:54:00,55.6,45.6,29.74,WNW,292,1.2,0.0,69,0.00,CLR,,0.00,WeatherDisplay:10.37,2013-02-26 22:54:00,
2013-02-26 16:59:00,55.4,45.4,29.75,West,270,0.0,3.0,69,0.00,CLR,,0.00,WeatherDisplay:10.37,2013-02-26 22:59:00,
2013-02-26 17:04:00,55.2,45.2,29.75,West,270,0.0,0.0,69,0.00,CLR,,0.00,WeatherDisplay:10.37,2013-02-26 23:04:00,
2013-02-26 17:09:00,55.2,45.2,29.75,NW,315,0.0,0.0,69,0.00,CLR,,0.00,WeatherDisplay:10.37,2013-02-26 23:09:00,
2013-02-26 17:14:00,55.0,45.1,29.75,West,270,0.0,0.0,69,0.00,CLR,,0.00,WeatherDisplay:10.37,2013-02-26 23:14:00,
2013-02-26 17:19:00,54.9,45.3,29.76,WNW,292,0.0,0.0,70,0.00,CLR,,0.00,WeatherDisplay:10.37,2013-02-26 23:19:00,
2013-02-26 17:24:00,54.7,45.1,29.76,WNW,292,0.0,0.0,70,0.00,CLR,,0.00,WeatherDisplay:10.37,2013-02-26 23:24:00,
2013-02-26 17:29:00,54.5,44.9,29.76,West,270,0.0,0.0,70,0.00,CLR,,0.00,WeatherDisplay:10.37,2013-02-26 23:29:00,
2013-02-26 17:34:00,54.3,45.1,29.77,WNW,292,0.0,0.0,71,0.00,CLR,,0.00,WeatherDisplay:10.37,2013-02-26 23:34:00,
2013-02-26 17:39:00,54.3,45.1,29.77,WSW,248,0.0,0.0,71,0.00,CLR,,0.00,WeatherDisplay:10.37,2013-02-26 23:39:00,
2013-02-26 17:44:00,54.1,44.9,29.78,West,270,0.0,0.0,71,0.00,CLR,,0.00,WeatherDisplay:10.37,2013-02-26 23:44:00,
2013-02-26 17:49:00,54.0,44.8,29.78,West,270,0.0,0.0,71,0.00,CLR,,0.00,WeatherDisplay:10.37,2013-02-26 23:49:00,
2013-02-26 17:54:00,54.0,44.8,29.78,NW,315,0.0,0.0,71,0.00,CLR,,0.00,WeatherDisplay:10.37,2013-02-26 23:54:00,
2013-02-26 17:59:00,53.8,44.6,29.78,WSW,248,2.3,5.3,71,0.00,CLR,,0.00,WeatherDisplay:10.37,2013-02-26 23:59:00,
2013-02-26 18:04:00,53.8,45.0,29.78,West,270,0.0,0.0,72,0.00,CLR,,0.00,WeatherDisplay:10.37,2013-02-27 00:04:00,
2013-02-26 18:09:00,53.8,45.0,29.78,WNW,292,0.0,0.0,72,0.00,CLR,,0.00,WeatherDisplay:10.37,2013-02-27 00:09:00,
2013-02-26 18:14:00,53.4,44.6,29.78,WNW,292,4.6,9.2,72,0.00,CLR,,0.00,WeatherDisplay:10.37,2013-02-27 00:14:00,
2013-02-26 18:19:00,53.4,44.6,29.79,NW,315,2.3,2.3,72,0.00,CLR,,0.00,WeatherDisplay:10.37,2013-02-27 00:19:00,
2013-02-26 18:24:00,53.4,45.0,29.79,WNW,292,0.0,0.0,73,0.00,CLR,,0.00,WeatherDisplay:10.37,2013-02-27 00:24:00,
2013-02-26 18:29:00,53.4,45.0,29.80,WNW,292,0.0,0.0,73,0.00,CLR,,0.00,WeatherDisplay:10.37,2013-02-27 00:29:00,
2013-02-26 18:34:00,53.4,45.0,29.80,WNW,292,0.0,0.0,73,0.00,CLR,,0.00,WeatherDisplay:10.37,2013-02-27 00:34:00,
2013-02-26 18:39:00,53.4,45.0,29.81,West,270,0.0,0.0,73,0.00,CLR,,0.00,WeatherDisplay:10.37,2013-02-27 00:39:00,
2013-02-26 18:44:00,53.2,44.8,29.81,NW,315,0.0,0.0,73,0.00,CLR,,0.00,WeatherDisplay:10.37,2013-02-27 00:44:00,
2013-02-26 18:49:00,53.2,44.8,29.81,NNW,338,0.0,0.0,73,0.00,CLR,,0.00,WeatherDisplay:10.37,2013-02-27 00:49:00,
2013-02-26 18:54:00,53.2,44.8,29.81,WNW,292,0.0,0.0,73,0.00,CLR,,0.00,WeatherDisplay:10.37,2013-02-27 00:54:00,
2013-02-26 18:59:00,53.2,44.8,29.81,WNW,292,0.0,0.0,73,0.00,CLR,,0.00,WeatherDisplay:10.37,2013-02-27 00:59:00,
2013-02-26 19:04:00,53.2,44.8,29.82,West,270,0.0,0.0,73,0.00,CLR,,0.00,WeatherDisplay:10.37,2013-02-27 01:04:00,
2013-02-26 19:09:00,53.2,44.8,29.82,WNW,292,0.0,0.0,73,0.00,CLR,,0.00,WeatherDisplay:10.37,2013-02-27 01:09:00,
2013-02-26 19:14:00,53.1,44.6,29.82,WNW,292,0.0,0.0,73,0.00,CLR,,0.00,WeatherDisplay:10.37,2013-02-27 01:14:00,
2013-02-26 19:19:00,53.1,45.0,29.83,WNW,292,0.0,0.0,74,0.00,CLR,,0.00,WeatherDisplay:10.37,2013-02-27 01:19:00,
2013-02-26 19:24:00,52.9,44.8,29.83,WNW,292,0.0,0.0,74,0.00,CLR,,0.00,WeatherDisplay:10.37,2013-02-27 01:24:00,
2013-02-26 19:29:00,52.9,44.8,29.83,WNW,292,0.0,0.0,74,0.00,CLR,,0.00,WeatherDisplay:10.37,2013-02-27 01:29:00,
2013-02-26 19:34:00,52.9,44.8,29.83,WNW,292,0.0,0.0,74,0.00,CLR,,0.00,WeatherDisplay:10.37,2013-02-27 01:34:00,
2013-02-26 19:39:00,52.9,44.8,29.83,West,270,0.0,0.0,74,0.00,CLR,,0.00,WeatherDisplay:10.37,2013-02-27 01:39:00,
2013-02-26 19:44:00,52.9,44.8,29.84,West,270,7.1,14.0,74,0.00,CLR,,0.00,WeatherDisplay:10.37,2013-02-27 01:44:00,
2013-02-26 19:49:00,52.7,45.0,29.84,WNW,292,0.0,0.0,75,0.00,CLR,,0.00,WeatherDisplay:10.37,2013-02-27 01:49:00,
2013-02-26 19:54:00,52.7,45.0,29.85,East,90,0.0,0.0,75,0.00,CLR,,0.00,WeatherDisplay:10.37,2013-02-27 01:54:00,
2013-02-26 19:59:00,52.7,45.0,29.85,WNW,292,0.0,0.0,75,0.00,CLR,,0.00,WeatherDisplay:10.37,2013-02-27 01:59:00,
2013-02-26 20:05:00,52.5,45.2,29.85,West,270,0.0,0.0,76,0.00,CLR,,0.00,WeatherDisplay:10.37,2013-02-27 02:05:00,
2013-02-26 20:10:00,52.5,45.2,29.85,West,270,0.0,0.0,76,0.00,CLR,,0.00,WeatherDisplay:10.37,2013-02-27 02:10:00,
2013-02-26 20:15:00,52.7,45.3,29.85,NW,315,0.0,0.0,76,0.00,CLR,,0.00,WeatherDisplay:10.37,2013-02-27 02:15:00,
2013-02-26 20:20:00,52.5,45.2,29.85,West,270,0.0,0.0,76,0.00,CLR,,0.00,WeatherDisplay:10.37,2013-02-27 02:20:00,
2013-02-26 20:25:00,52.5,45.2,29.86,WNW,292,0.0,0.0,76,0.00,CLR,,0.00,WeatherDisplay:10.37,2013-02-27 02:25:00,
2013-02-26 20:30:00,52.5,45.2,29.86,West,270,0.0,0.0,76,0.00,CLR,,0.00,WeatherDisplay:10.37,2013-02-27 02:30:00,
2013-02-26 20:35:00,52.5,45.2,29.86,West,270,0.0,0.0,76,0.00,CLR,,0.00,WeatherDisplay:10.37,2013-02-27 02:35:00,
2013-02-26 20:40:00,52.5,45.2,29.86,West,270,0.0,0.0,76,0.00,CLR,,0.00,WeatherDisplay:10.37,2013-02-27 02:40:00,
2013-02-26 20:45:00,52.5,45.2,29.86,WNW,292,0.0,0.0,76,0.00,CLR,,0.00,WeatherDisplay:10.37,2013-02-27 02:45:00,
2013-02-26 20:50:00,52.5,45.2,29.87,WNW,292,0.0,0.0,76,0.00,CLR,,0.00,WeatherDisplay:10.37,2013-02-27 02:50:00,
2013-02-26 20:55:00,52.5,45.2,29.87,WNW,292,0.0,0.0,76,0.00,CLR,,0.00,WeatherDisplay:10.37,2013-02-27 02:55:00,
2013-02-26 21:00:00,52.5,45.5,29.86,WNW,292,0.0,0.0,77,0.00,CLR,,0.00,WeatherDisplay:10.37,2013-02-27 03:00:00,
2013-02-26 21:05:00,52.5,45.5,29.87,WNW,292,0.0,0.0,77,0.00,CLR,,0.00,WeatherDisplay:10.37,2013-02-27 03:05:00,
2013-02-26 21:10:00,52.7,45.7,29.88,WNW,292,0.0,0.0,77,0.00,CLR,,0.00,WeatherDisplay:10.37,2013-02-27 03:10:00,
2013-02-26 21:15:00,52.5,45.5,29.88,WNW,292,0.0,0.0,77,0.00,CLR,,0.00,WeatherDisplay:10.37,2013-02-27 03:15:00,
2013-02-26 21:20:00,52.5,45.5,29.88,WNW,292,0.0,0.0,77,0.00,CLR,,0.00,WeatherDisplay:10.37,2013-02-27 03:20:00,
2013-02-26 21:25:00,52.5,45.5,29.88,WNW,292,0.0,0.0,77,0.00,CLR,,0.00,WeatherDisplay:10.37,2013-02-27 03:25:00,
2013-02-26 21:30:00,52.5,45.5,29.88,West,270,0.0,0.0,77,0.00,CLR,,0.00,WeatherDisplay:10.37,2013-02-27 03:30:00,
2013-02-26 21:35:00,52.5,45.5,29.89,West,270,0.0,0.0,77,0.00,CLR,,0.00,WeatherDisplay:10.37,2013-02-27 03:35:00,
2013-02-26 21:40:00,52.5,45.5,29.89,West,270,0.0,0.0,77,0.00,CLR,,0.00,WeatherDisplay:10.37,2013-02-27 03:40:00,
2013-02-26 21:45:00,52.5,45.5,29.89,West,270,0.0,0.0,77,0.00,CLR,,0.00,WeatherDisplay:10.37,2013-02-27 03:45:00,
2013-02-26 21:50:00,52.5,45.5,29.89,West,270,0.0,0.0,77,0.00,CLR,,0.00,WeatherDisplay:10.37,2013-02-27 03:50:00,
2013-02-26 21:55:00,52.5,45.5,29.89,West,270,0.0,0.0,77,0.00,CLR,,0.00,WeatherDisplay:10.37,2013-02-27 03:55:00,
2013-02-26 22:00:00,52.5,45.5,29.89,West,270,0.0,0.0,77,0.00,CLR,,0.00,WeatherDisplay:10.37,2013-02-27 04:00:00,
2013-02-26 22:05:00,52.3,45.7,29.89,West,270,0.0,0.0,78,0.00,CLR,,0.00,WeatherDisplay:10.37,2013-02-27 04:05:00,
2013-02-26 22:10:00,52.3,45.7,29.90,WNW,292,0.0,0.0,78,0.00,CLR,,0.00,WeatherDisplay:10.37,2013-02-27 04:10:00,
2013-02-26 22:15:00,52.3,45.7,29.90,West,270,0.0,0.0,78,0.00,CLR,,0.00,WeatherDisplay:10.37,2013-02-27 04:15:00,
2013-02-26 22:20:00,52.3,45.7,29.90,West,270,0.0,0.0,78,0.00,CLR,,0.00,WeatherDisplay:10.37,2013-02-27 04:20:00,
2013-02-26 22:25:00,52.3,45.7,29.89,West,270,0.0,0.0,78,0.00,CLR,,0.00,WeatherDisplay:10.37,2013-02-27 04:25:00,
2013-02-26 22:30:00,52.3,45.3,29.90,West,270,0.0,0.0,77,0.00,CLR,,0.00,WeatherDisplay:10.37,2013-02-27 04:30:00,
2013-02-26 22:35:00,52.3,45.3,29.90,WNW,292,0.0,0.0,77,0.00,CLR,,0.00,WeatherDisplay:10.37,2013-02-27 04:35:00,
2013-02-26 22:40:00,52.3,45.7,29.90,WNW,292,0.0,0.0,78,0.00,CLR,,0.00,WeatherDisplay:10.37,2013-02-27 04:40:00,
2013-02-26 22:45:00,52.2,45.5,29.90,WNW,292,0.0,0.0,78,0.00,CLR,,0.00,WeatherDisplay:10.37,2013-02-27 04:45:00,
2013-02-26 22:50:00,52.2,45.2,29.90,WNW,292,0.0,0.0,77,0.00,CLR,,0.00,WeatherDisplay:10.37,2013-02-27 04:50:00,
2013-02-26 22:55:00,52.2,45.2,29.91,WNW,292,0.0,0.0,77,0.00,CLR,,0.00,WeatherDisplay:10.37,2013-02-27 04:55:00,
2013-02-26 23:00:00,52.2,45.2,29.91,NW,315,0.0,0.0,77,0.00,CLR,,0.00,WeatherDisplay:10.37,2013-02-27 05:00:00,
2013-02-26 23:01:00,52.2,45.2,29.91,NW,315,0.0,0.0,77,0.00,CLR,,0.00,WeatherDisplay:10.37,2013-02-27 05:01:00,
2013-02-26 23:06:00,52.2,45.2,29.91,West,270,0.0,0.0,77,0.00,CLR,,0.00,WeatherDisplay:10.37,2013-02-27 05:06:00,
2013-02-26 23:11:00,52.2,45.2,29.90,WNW,292,0.0,0.0,77,0.00,CLR,,0.00,WeatherDisplay:10.37,2013-02-27 05:11:00,
2013-02-26 23:16:00,52.2,45.2,29.91,West,270,0.0,0.0,77,0.00,CLR,,0.00,WeatherDisplay:10.37,2013-02-27 05:16:00,
2013-02-26 23:21:00,52.0,45.0,29.90,West,270,0.0,0.0,77,0.00,CLR,,0.00,WeatherDisplay:10.37,2013-02-27 05:21:00,
2013-02-26 23:26:00,52.0,45.0,29.91,West,270,0.0,0.0,77,0.00,CLR,,0.00,WeatherDisplay:10.37,2013-02-27 05:26:00,
2013-02-26 23:31:00,52.0,45.0,29.91,West,270,0.0,0.0,77,0.00,CLR,,0.00,WeatherDisplay:10.37,2013-02-27 05:31:00,
2013-02-26 23:36:00,51.8,44.8,29.91,West,270,0.0,0.0,77,0.00,CLR,,0.00,WeatherDisplay:10.37,2013-02-27 05:36:00,
2013-02-26 23:41:00,51.6,44.6,29.91,West,270,0.0,0.0,77,0.00,CLR,,0.00,WeatherDisplay:10.37,2013-02-27 05:41:00,
2013-02-26 23:46:00,51.8,44.8,29.91,West,270,0.0,0.0,77,0.00,CLR,,0.00,WeatherDisplay:10.37,2013-02-27 05:46:00,
2013-02-26 23:51:00,51.6,45.0,29.91,West,270,0.0,0.0,78,0.00,CLR,,0.00,WeatherDisplay:10.37,2013-02-27 05:51:00,
2013-02-26 23:56:00,51.6,44.6,29.91,West,270,0.0,0.0,77,0.00,CLR,,0.00,WeatherDisplay:10.37,2013-02-27 05:56:00,